createdAt,value
2023-09-18T00:02:20.490Z,23.17
2023-09-18T00:04:47.441Z,18.55
2023-09-18T00:07:14.330Z,28.30
2023-09-18T00:09:41.270Z,27.07
2023-09-18T00:12:08.160Z,20.10
2023-09-18T00:14:34.971Z,24.65
2023-09-18T00:17:01.989Z,23.35
2023-09-18T00:19:29.307Z,24.95
2023-09-18T00:21:56.708Z,25.10
2023-09-18T00:24:23.853Z,18.85
2023-09-18T00:26:50.696Z,18.90
2023-09-18T00:29:17.567Z,22.15
2023-09-18T00:31:44.544Z,30.55
2023-09-18T00:34:11.386Z,23.10
2023-09-18T00:36:38.194Z,22.50
2023-09-18T00:39:05.825Z,21.40
2023-09-18T00:41:33.677Z,16.67
2023-09-18T00:44:00.818Z,25.27
2023-09-18T00:46:28.279Z,19.93
2023-09-18T00:48:55.805Z,21.63
2023-09-18T00:51:22.837Z,22.17
2023-09-18T00:53:50.116Z,25.40
2023-09-18T00:56:17.332Z,21.98
2023-09-18T00:58:45.122Z,21.00
2023-09-18T01:01:13.161Z,19.35
2023-09-18T01:03:40.135Z,20.30
2023-09-18T01:06:07.014Z,27.67
2023-09-18T01:08:33.832Z,24.13
2023-09-18T01:11:37.339Z,18.93
2023-09-18T01:14:43.825Z,19.52
2023-09-18T01:17:14.945Z,21.83
2023-09-18T01:19:48.699Z,30.25
2023-09-18T01:22:17.867Z,30.15
2023-09-18T01:24:46.317Z,19.97
2023-09-18T01:27:15.585Z,24.52
2023-09-18T01:29:42.627Z,19.58
2023-09-18T01:32:09.582Z,27.88
2023-09-18T01:34:46.120Z,26.13
2023-09-18T01:37:14.990Z,20.33
2023-09-18T01:39:42.899Z,18.83
2023-09-18T01:42:12.850Z,25.85
2023-09-18T01:44:39.998Z,18.73
2023-09-18T01:47:13.505Z,21.27
2023-09-18T01:49:41.304Z,29.67
2023-09-18T01:52:09.515Z,25.13
2023-09-18T01:54:37.701Z,26.15
2023-09-18T01:57:05.901Z,20.23
2023-09-18T01:59:32.807Z,21.05
2023-09-18T02:02:00.451Z,21.67
2023-09-18T02:05:07.123Z,18.73
2023-09-18T02:07:15.307Z,19.45
2023-09-18T02:09:42.514Z,18.67
2023-09-18T02:12:09.367Z,21.75
2023-09-18T02:14:36.244Z,26.00
2023-09-18T02:17:04.126Z,19.33
2023-09-18T02:19:30.997Z,23.13
2023-09-18T02:21:58.902Z,21.95
2023-09-18T02:24:26.065Z,28.15
2023-09-18T02:26:54.757Z,23.97
2023-09-18T02:29:22.054Z,19.98
2023-09-18T02:31:48.931Z,20.00
2023-09-18T02:34:15.807Z,23.02
2023-09-18T02:36:42.615Z,23.17
2023-09-18T02:39:09.442Z,28.70
2023-09-18T02:41:36.276Z,24.15
2023-09-18T02:44:03.159Z,18.85
2023-09-18T02:46:30.564Z,20.55
2023-09-18T02:48:57.414Z,16.67
2023-09-18T02:51:24.681Z,21.07
2023-09-18T02:53:51.811Z,21.00
2023-09-18T02:56:18.629Z,17.45
2023-09-18T02:58:45.481Z,17.92
2023-09-18T03:01:12.350Z,23.00
2023-09-18T03:03:39.530Z,23.80
2023-09-18T03:06:07.648Z,29.92
2023-09-18T03:08:34.877Z,32.35
2023-09-18T03:11:02.459Z,23.40
2023-09-18T03:13:29.629Z,36.13
2023-09-18T03:15:57.772Z,23.10
2023-09-18T03:18:26.164Z,24.60
2023-09-18T03:20:53.044Z,24.88
2023-09-18T03:23:20.783Z,19.90
2023-09-18T03:25:51.352Z,22.70
2023-09-18T03:28:20.845Z,21.37
2023-09-18T03:30:48.924Z,26.67
2023-09-18T03:33:18.154Z,24.75
2023-09-18T03:35:55.293Z,22.95
2023-09-18T03:38:25.739Z,18.35
2023-09-18T03:40:53.018Z,22.03
2023-09-18T03:43:20.523Z,27.30
2023-09-18T03:45:48.328Z,26.98
2023-09-18T03:48:15.398Z,25.65
2023-09-18T03:50:43.463Z,18.55
2023-09-18T03:53:11.179Z,23.67
2023-09-18T03:55:38.988Z,26.00
2023-09-18T03:58:06.860Z,28.75
2023-09-18T04:00:33.707Z,32.00
2023-09-18T04:03:00.766Z,32.17
2023-09-18T04:05:28.520Z,29.13
2023-09-18T04:07:57.333Z,29.55
2023-09-18T04:10:25.180Z,36.40
2023-09-18T04:12:53.518Z,23.05
2023-09-18T04:15:20.966Z,32.95
2023-09-18T04:17:48.714Z,30.13
2023-09-18T04:20:16.205Z,30.55
2023-09-18T04:22:45.981Z,35.42
2023-09-18T04:25:13.608Z,33.78
2023-09-18T04:27:40.585Z,23.70
2023-09-18T04:30:10.370Z,27.33
2023-09-18T04:32:38.766Z,24.13
2023-09-18T04:35:06.488Z,28.52
2023-09-18T04:37:38.792Z,28.58
2023-09-18T04:40:11.177Z,27.60
2023-09-18T04:42:39.881Z,26.13
2023-09-18T04:45:07.466Z,26.67
2023-09-18T04:47:34.562Z,30.40
2023-09-18T04:50:01.716Z,28.55
2023-09-18T04:52:28.790Z,23.38
2023-09-18T04:54:56.110Z,28.87
2023-09-18T04:57:23.457Z,22.10
2023-09-18T05:00:01.538Z,21.83
2023-09-18T05:02:37.603Z,27.65
2023-09-18T05:05:05.387Z,32.75
2023-09-18T05:07:33.703Z,42.87
2023-09-18T05:10:00.511Z,25.20
2023-09-18T05:12:27.439Z,23.05
2023-09-18T05:14:54.206Z,25.88
2023-09-18T05:17:21.030Z,28.23
2023-09-18T05:19:47.900Z,20.20
2023-09-18T05:22:15.012Z,15.30
2023-09-18T05:24:41.922Z,17.90
2023-09-18T05:27:08.792Z,19.92
2023-09-18T05:29:37.432Z,14.15
2023-09-18T05:32:05.272Z,14.23
2023-09-18T05:34:33.170Z,12.88
2023-09-18T05:37:00.269Z,11.00
2023-09-18T05:39:27.400Z,11.93
2023-09-18T05:41:54.163Z,14.45
2023-09-18T05:44:21.001Z,13.50
2023-09-18T05:46:47.894Z,14.32
2023-09-18T05:49:14.820Z,14.30
2023-09-18T05:51:41.613Z,13.77
2023-09-18T05:54:08.588Z,10.85
2023-09-18T05:56:35.396Z,16.37
2023-09-18T05:59:02.404Z,12.68
2023-09-18T06:01:29.251Z,13.77
2023-09-18T06:03:57.030Z,13.23
2023-09-18T06:06:23.934Z,13.15
2023-09-18T06:08:50.885Z,9.67
2023-09-18T06:11:18.469Z,16.90
2023-09-18T06:13:45.679Z,17.40
2023-09-18T06:16:12.594Z,14.80
2023-09-18T06:18:39.716Z,15.38
2023-09-18T06:21:07.169Z,19.70
2023-09-18T06:23:34.405Z,18.83
2023-09-18T06:26:01.904Z,16.27
2023-09-18T06:28:28.770Z,13.23
2023-09-18T06:30:55.832Z,21.58
2023-09-18T06:33:23.355Z,14.47
2023-09-18T06:35:50.188Z,16.60
2023-09-18T06:38:17.100Z,15.15
2023-09-18T06:40:43.942Z,16.92
2023-09-18T06:43:10.719Z,19.48
2023-09-18T06:45:39.194Z,17.20
2023-09-18T06:48:06.568Z,19.02
2023-09-18T06:50:34.572Z,21.95
2023-09-18T06:53:01.433Z,18.45
2023-09-18T06:55:28.245Z,17.48
2023-09-18T06:57:55.038Z,16.80
2023-09-18T07:00:22.367Z,16.90
2023-09-18T07:02:50.763Z,17.65
2023-09-18T07:05:18.096Z,18.63
2023-09-18T07:07:45.022Z,16.83
2023-09-18T07:10:11.966Z,14.10
2023-09-18T07:12:38.806Z,19.35
2023-09-18T07:15:06.576Z,14.63
2023-09-18T07:17:34.367Z,18.58
2023-09-18T07:20:01.474Z,16.30
2023-09-18T07:22:30.766Z,14.63
2023-09-18T07:24:58.096Z,18.75
2023-09-18T07:27:24.977Z,17.13
2023-09-18T07:29:51.874Z,15.05
2023-09-18T07:32:29.968Z,15.40
2023-09-18T07:35:07.844Z,14.00
2023-09-18T07:37:35.411Z,17.45
2023-09-18T07:40:03.243Z,14.73
2023-09-18T07:42:30.091Z,13.27
2023-09-18T07:44:59.295Z,14.77
2023-09-18T07:47:26.942Z,15.30
2023-09-18T07:49:55.451Z,14.30
2023-09-18T07:52:22.358Z,10.52
2023-09-18T07:54:49.136Z,11.57
2023-09-18T07:57:17.033Z,13.75
2023-09-18T07:59:44.077Z,13.40
2023-09-18T08:02:11.301Z,10.60
2023-09-18T08:04:38.149Z,14.57
2023-09-18T08:07:08.783Z,11.23
2023-09-18T08:09:39.875Z,10.13
2023-09-18T08:12:08.080Z,11.90
2023-09-18T08:14:37.460Z,9.57
2023-09-18T08:17:06.608Z,9.23
2023-09-18T08:19:35.128Z,8.27
2023-09-18T08:22:05.208Z,9.40
2023-09-18T08:24:32.795Z,9.63
2023-09-18T08:26:59.581Z,12.00
2023-09-18T08:29:26.595Z,8.55
2023-09-18T08:31:53.518Z,10.98
2023-09-18T08:34:22.286Z,8.93
2023-09-18T08:36:50.542Z,8.43
2023-09-18T08:39:17.336Z,8.93
2023-09-18T08:41:45.536Z,7.13
2023-09-18T08:44:13.380Z,8.93
2023-09-18T08:46:40.394Z,12.45
2023-09-18T08:49:08.615Z,11.60
2023-09-18T08:51:36.551Z,8.65
2023-09-18T08:54:06.055Z,9.50
2023-09-18T08:56:35.516Z,13.10
2023-09-18T08:59:02.481Z,9.07
2023-09-18T09:01:29.404Z,10.03
2023-09-18T09:03:56.525Z,8.07
2023-09-18T09:06:23.562Z,7.45
2023-09-18T09:08:51.819Z,7.22
2023-09-18T09:11:20.942Z,7.35
2023-09-18T09:13:47.803Z,6.43
2023-09-18T09:16:18.433Z,9.50
2023-09-18T09:18:51.014Z,7.75
2023-09-18T09:21:18.600Z,7.38
2023-09-18T09:23:54.059Z,8.63
2023-09-18T09:26:23.820Z,6.40
2023-09-18T09:28:51.575Z,7.40
2023-09-18T09:31:30.452Z,8.13
2023-09-18T09:33:59.243Z,7.25
2023-09-18T09:36:26.046Z,8.30
2023-09-18T09:38:58.979Z,6.30
2023-09-18T09:41:30.215Z,4.97
2023-09-18T09:43:57.791Z,7.53
2023-09-18T09:46:26.882Z,9.75
2023-09-18T09:49:07.413Z,5.30
2023-09-18T09:51:35.619Z,5.40
2023-09-18T09:54:02.723Z,5.63
2023-09-18T09:56:51.559Z,8.32
2023-09-18T09:59:20.262Z,6.65
2023-09-18T10:01:51.999Z,7.22
2023-09-18T10:04:21.163Z,7.80
2023-09-18T10:06:59.530Z,6.38
2023-09-18T10:09:29.834Z,6.13
2023-09-18T10:11:58.230Z,7.63
2023-09-18T10:14:46.979Z,5.97
2023-09-18T10:17:22.122Z,6.83
2023-09-18T10:20:20.480Z,4.97
2023-09-18T10:22:51.120Z,10.90
2023-09-18T10:25:24.906Z,9.25
2023-09-18T10:27:59.517Z,10.55
2023-09-18T10:30:27.922Z,8.13
2023-09-18T10:32:55.999Z,6.32
2023-09-18T10:35:23.573Z,6.28
2023-09-18T10:37:54.903Z,7.38
2023-09-18T10:40:22.960Z,6.97
2023-09-18T10:42:53.133Z,10.00
2023-09-18T10:45:20.115Z,8.05
2023-09-18T10:47:49.140Z,9.70
2023-09-18T10:50:26.625Z,9.75
2023-09-18T10:52:53.849Z,10.80
2023-09-18T10:55:22.813Z,8.77
2023-09-18T10:57:57.508Z,7.45
2023-09-18T11:00:32.185Z,11.60
2023-09-18T11:03:18.853Z,10.93
2023-09-18T11:05:47.447Z,8.57
2023-09-18T11:08:28.515Z,8.97
2023-09-18T11:11:10.855Z,10.60
2023-09-18T11:13:51.053Z,8.90
2023-09-18T11:16:30.001Z,9.18
2023-09-18T11:19:02.509Z,8.43
2023-09-18T11:21:31.317Z,8.00
2023-09-18T11:24:01.992Z,9.10
2023-09-18T11:26:36.366Z,9.25
2023-09-18T11:29:06.718Z,9.02
2023-09-18T11:31:58.557Z,7.82
2023-09-18T11:34:36.035Z,10.43
2023-09-18T11:37:19.811Z,6.72
2023-09-18T11:39:47.261Z,8.45
2023-09-18T11:42:18.823Z,8.68
2023-09-18T11:44:48.826Z,7.40
2023-09-18T11:47:23.092Z,7.90
2023-09-18T11:49:59.343Z,6.20
2023-09-18T11:52:28.672Z,6.93
2023-09-18T11:54:58.588Z,9.40
2023-09-18T11:57:26.066Z,12.30
2023-09-18T11:59:53.319Z,12.20
2023-09-18T12:02:36.682Z,7.25
2023-09-18T12:05:16.311Z,9.18
2023-09-18T12:07:46.646Z,13.23
2023-09-18T12:10:16.255Z,8.80
2023-09-18T12:12:44.407Z,9.87
2023-09-18T12:15:30.843Z,10.75
2023-09-18T12:18:00.795Z,10.63
2023-09-18T12:20:27.683Z,10.98
2023-09-18T12:22:54.781Z,9.55
2023-09-18T12:25:23.572Z,11.27
2023-09-18T12:27:54.305Z,8.90
2023-09-18T12:30:23.912Z,6.88
2023-09-18T12:32:52.243Z,6.93
2023-09-18T12:35:22.408Z,6.75
2023-09-18T12:37:50.609Z,8.20
2023-09-18T12:40:31.064Z,7.10
2023-09-18T12:42:59.132Z,5.40
2023-09-18T12:45:26.627Z,10.15
2023-09-18T12:47:56.921Z,8.70
2023-09-18T12:50:26.027Z,8.20
2023-09-18T12:52:52.951Z,10.20
2023-09-18T12:55:27.857Z,7.07
2023-09-18T12:57:55.452Z,6.28
2023-09-18T13:00:28.027Z,6.30
2023-09-18T13:02:58.368Z,7.20
2023-09-18T13:05:33.433Z,6.78
2023-09-18T13:08:05.022Z,5.93
2023-09-18T13:10:50.785Z,8.57
2023-09-18T13:13:24.904Z,8.98
2023-09-18T13:15:54.901Z,6.27
2023-09-18T13:18:24.642Z,8.65
2023-09-18T13:20:52.861Z,6.93
2023-09-18T13:23:22.772Z,8.25
2023-09-18T13:25:49.908Z,5.65
2023-09-18T13:28:18.947Z,5.97
2023-09-18T13:30:45.824Z,9.65
2023-09-18T13:33:14.553Z,5.35
2023-09-18T13:35:43.337Z,6.70
2023-09-18T13:38:15.340Z,8.00
2023-09-18T13:40:43.864Z,5.90
2023-09-18T13:43:11.321Z,5.22
2023-09-18T13:45:38.829Z,5.28
2023-09-18T13:48:06.815Z,4.70
2023-09-18T13:50:34.615Z,6.80
2023-09-18T13:53:04.138Z,10.83
2023-09-18T13:55:31.906Z,8.20
2023-09-18T13:57:58.695Z,5.35
2023-09-18T14:00:26.751Z,5.55
2023-09-18T14:02:53.828Z,6.40
2023-09-18T14:05:21.095Z,4.97
2023-09-18T14:07:48.967Z,5.78
2023-09-18T14:10:16.624Z,5.07
2023-09-18T14:12:45.534Z,4.25
2023-09-18T14:15:12.325Z,4.30
2023-09-18T14:17:40.252Z,4.70
2023-09-18T14:20:07.921Z,4.78
2023-09-18T14:22:36.005Z,7.07
2023-09-18T14:25:05.993Z,6.97
2023-09-18T14:27:34.120Z,4.10
2023-09-18T14:30:02.663Z,4.23
2023-09-18T14:32:29.460Z,3.75
2023-09-18T14:34:56.370Z,6.32
2023-09-18T14:37:23.149Z,4.38
2023-09-18T14:39:49.925Z,3.95
2023-09-18T14:42:16.714Z,5.40
2023-09-18T14:44:45.887Z,4.55
2023-09-18T14:47:13.386Z,5.20
2023-09-18T14:49:40.457Z,4.03
2023-09-18T14:52:07.580Z,11.93
2023-09-18T14:54:34.815Z,4.07
2023-09-18T14:57:02.658Z,4.43
2023-09-18T14:59:40.263Z,5.07
2023-09-18T15:02:09.604Z,4.82
2023-09-18T15:04:36.803Z,5.97
2023-09-18T15:07:03.889Z,5.87
2023-09-18T15:09:30.836Z,4.18
2023-09-18T15:11:57.778Z,11.63
2023-09-18T15:14:25.177Z,6.00
2023-09-18T15:16:52.816Z,7.03
2023-09-18T15:19:20.958Z,6.73
2023-09-18T15:21:48.263Z,5.55
2023-09-18T15:24:15.431Z,3.15
2023-09-18T15:26:42.648Z,5.88
2023-09-18T15:29:09.996Z,7.18
2023-09-18T15:31:37.149Z,3.50
2023-09-18T15:34:04.351Z,4.53
2023-09-18T15:36:33.193Z,3.25
2023-09-18T15:39:01.310Z,2.35
2023-09-18T15:41:29.301Z,5.47
2023-09-18T15:43:57.059Z,6.23
2023-09-18T15:46:24.484Z,3.90
2023-09-18T15:48:51.838Z,3.20
2023-09-18T15:51:19.601Z,3.97
2023-09-18T15:53:46.556Z,3.22
2023-09-18T15:56:14.428Z,3.33
2023-09-18T15:58:41.421Z,3.33
2023-09-18T16:03:41.265Z,4.20
2023-09-18T16:06:09.049Z,5.40
2023-09-18T16:08:35.958Z,5.03
2023-09-18T16:11:02.866Z,4.55
2023-09-18T16:13:29.600Z,4.10
2023-09-18T16:15:57.449Z,4.22
2023-09-18T16:18:24.901Z,6.43
2023-09-18T16:20:51.841Z,3.13
2023-09-18T16:23:18.704Z,5.40
2023-09-18T16:25:45.586Z,5.15
2023-09-18T16:28:12.396Z,3.90
2023-09-18T16:30:39.191Z,3.15
2023-09-18T16:33:06.086Z,3.33
2023-09-18T16:35:33.206Z,4.45
2023-09-18T16:38:00.742Z,2.22
2023-09-18T16:40:27.901Z,6.07
2023-09-18T16:42:54.696Z,5.80
2023-09-18T16:45:21.503Z,3.97
2023-09-18T16:47:48.300Z,3.53
2023-09-18T16:50:15.468Z,5.10
2023-09-18T16:52:46.697Z,3.97
2023-09-18T16:55:13.604Z,5.07
2023-09-18T16:57:40.422Z,2.83
2023-09-18T17:00:08.992Z,5.18
2023-09-18T17:02:35.991Z,4.18
2023-09-18T17:05:03.664Z,3.40
2023-09-18T17:07:32.617Z,9.02
2023-09-18T17:09:59.907Z,5.23
2023-09-18T17:12:26.598Z,4.53
2023-09-18T17:14:54.240Z,5.18
2023-09-18T17:17:21.084Z,5.38
2023-09-18T17:19:47.963Z,9.05
2023-09-18T17:22:14.825Z,6.03
2023-09-18T17:24:42.657Z,5.40
2023-09-18T17:27:09.689Z,6.88
2023-09-18T17:29:36.784Z,4.88
2023-09-18T17:32:04.337Z,5.38
2023-09-18T17:34:32.466Z,5.90
2023-09-18T17:36:59.263Z,4.47
2023-09-18T17:39:26.217Z,5.25
2023-09-18T17:41:53.715Z,4.80
2023-09-18T17:44:20.898Z,3.80
2023-09-18T17:46:48.878Z,4.77
2023-09-18T17:49:16.379Z,4.45
2023-09-18T17:51:43.970Z,5.07
2023-09-18T17:54:11.254Z,4.65
2023-09-18T17:56:38.439Z,5.18
2023-09-18T17:59:08.152Z,6.60
2023-09-18T18:01:36.372Z,6.00
2023-09-18T18:04:04.193Z,4.90
2023-09-18T18:06:33.399Z,5.35
2023-09-18T18:09:00.794Z,4.53
2023-09-18T18:11:28.325Z,6.57
2023-09-18T18:13:55.118Z,10.07
2023-09-18T18:16:22.197Z,3.15
2023-09-18T18:18:49.532Z,4.68
2023-09-18T18:21:16.365Z,5.72
2023-09-18T18:23:43.105Z,7.27
2023-09-18T18:26:11.290Z,8.05
2023-09-18T18:28:41.144Z,4.57
2023-09-18T18:31:07.978Z,6.97
2023-09-18T18:33:35.854Z,10.05
2023-09-18T18:36:03.200Z,8.87
2023-09-18T18:38:30.051Z,5.75
2023-09-18T18:41:01.244Z,7.53
2023-09-18T18:43:35.078Z,8.52
2023-09-18T18:46:01.984Z,5.30
2023-09-18T18:48:29.321Z,7.20
2023-09-18T18:51:03.612Z,6.72
2023-09-18T18:53:31.208Z,5.40
2023-09-18T18:55:58.132Z,7.18
2023-09-18T18:58:25.021Z,7.63
2023-09-18T19:00:53.573Z,10.23
2023-09-18T19:03:21.209Z,10.65
2023-09-18T19:05:48.852Z,6.72
2023-09-18T19:08:15.756Z,10.85
2023-09-18T19:10:42.504Z,6.40
2023-09-18T19:13:09.721Z,5.50
2023-09-18T19:15:36.690Z,7.95
2023-09-18T19:18:03.636Z,7.70
2023-09-18T19:20:30.450Z,5.13
2023-09-18T19:22:59.982Z,9.02
2023-09-18T19:25:26.742Z,6.30
2023-09-18T19:27:53.495Z,4.85
2023-09-18T19:30:20.402Z,6.60
2023-09-18T19:32:47.466Z,6.28
2023-09-18T19:35:14.426Z,7.10
2023-09-18T19:37:41.435Z,6.97
2023-09-18T19:40:09.073Z,5.38
2023-09-18T19:42:35.964Z,8.48
2023-09-18T19:45:05.128Z,6.82
2023-09-18T19:47:32.029Z,8.82
2023-09-18T19:49:58.901Z,10.83
2023-09-18T19:52:25.752Z,8.32
2023-09-18T19:54:52.880Z,10.70
2023-09-18T19:57:19.648Z,8.52
2023-09-18T19:59:52.299Z,11.85
2023-09-18T20:02:19.342Z,13.70
2023-09-18T20:04:46.307Z,8.13
2023-09-18T20:07:13.967Z,8.90
2023-09-18T20:09:40.742Z,9.18
2023-09-18T20:12:10.410Z,6.88
2023-09-18T20:14:38.151Z,7.53
2023-09-18T20:17:05.860Z,10.80
2023-09-18T20:19:32.615Z,7.35
2023-09-18T20:21:59.402Z,6.97
2023-09-18T20:24:26.136Z,11.10
2023-09-18T20:26:52.912Z,9.27
2023-09-18T20:29:19.724Z,10.77
2023-09-18T20:31:46.887Z,9.07
2023-09-18T20:34:13.775Z,7.70
2023-09-18T20:36:42.440Z,7.75
2023-09-18T20:39:10.198Z,9.73
2023-09-18T20:41:37.180Z,10.57
2023-09-18T20:44:05.284Z,8.48
2023-09-18T20:46:32.060Z,6.68
2023-09-18T20:51:32.743Z,9.17
2023-09-18T20:54:03.686Z,9.40
2023-09-18T20:56:32.145Z,7.97
2023-09-18T20:59:02.946Z,8.77
2023-09-18T21:01:31.538Z,7.32
2023-09-18T21:03:58.552Z,6.90
2023-09-18T21:06:25.485Z,7.53
2023-09-18T21:08:52.310Z,9.95
2023-09-18T21:11:19.450Z,7.82
2023-09-18T21:13:49.980Z,6.78
2023-09-18T21:16:18.247Z,5.30
2023-09-18T21:18:46.091Z,5.82
2023-09-18T21:21:17.165Z,9.05
2023-09-18T21:23:45.487Z,7.10
2023-09-18T21:26:13.391Z,11.65
2023-09-18T21:28:41.304Z,10.07
2023-09-18T21:31:14.499Z,10.73
2023-09-18T21:33:43.439Z,10.57
2023-09-18T21:36:20.920Z,8.02
2023-09-18T21:38:50.311Z,9.95
2023-09-18T21:41:19.632Z,10.40
2023-09-18T21:43:47.467Z,13.23
2023-09-18T21:46:14.514Z,12.25
2023-09-18T21:48:41.549Z,12.23
2023-09-18T21:51:12.610Z,15.27
2023-09-18T21:53:41.269Z,17.90
2023-09-18T21:56:08.483Z,21.60
2023-09-18T21:58:35.457Z,21.90
2023-09-18T22:01:07.389Z,14.20
2023-09-18T22:03:39.834Z,17.02
2023-09-18T22:06:07.330Z,15.40
2023-09-18T22:08:38.054Z,16.70
2023-09-18T22:11:06.977Z,20.30
2023-09-18T22:13:34.266Z,13.38
2023-09-18T22:16:01.481Z,14.82
2023-09-18T22:18:28.604Z,11.23
2023-09-18T22:20:56.685Z,13.57
2023-09-18T22:23:26.388Z,11.43
2023-09-18T22:28:23.758Z,11.48
2023-09-18T22:30:52.364Z,11.23
2023-09-18T22:33:19.995Z,12.93
2023-09-18T22:35:47.204Z,8.52
2023-09-18T22:38:25.597Z,8.75
2023-09-18T22:40:57.589Z,36.70
2023-09-18T22:44:02.085Z,167.43
2023-09-18T22:47:10.146Z,238.20
2023-09-18T22:50:14.582Z,67.28
2023-09-18T22:52:41.672Z,22.83
2023-09-18T22:55:10.723Z,14.27
2023-09-18T22:57:44.706Z,8.80
2023-09-18T23:00:14.171Z,9.40
2023-09-18T23:02:45.021Z,11.95
2023-09-18T23:05:17.574Z,9.77
2023-09-18T23:07:54.031Z,8.15
2023-09-18T23:10:22.745Z,9.93
2023-09-18T23:12:53.050Z,10.30
2023-09-18T23:15:21.385Z,10.57
2023-09-18T23:17:48.510Z,9.88
2023-09-18T23:20:16.603Z,9.13
2023-09-18T23:22:44.911Z,10.27
2023-09-18T23:25:14.503Z,7.68
2023-09-18T23:27:43.429Z,7.35
2023-09-18T23:30:21.069Z,8.32
2023-09-18T23:32:55.365Z,10.20
2023-09-18T23:35:25.028Z,13.40
2023-09-18T23:37:59.201Z,11.43
2023-09-18T23:40:33.248Z,9.90
2023-09-18T23:43:04.981Z,7.57
2023-09-18T23:45:33.781Z,9.52
2023-09-18T23:48:19.954Z,7.80
2023-09-18T23:50:51.510Z,7.85
2023-09-18T23:53:20.209Z,10.65
2023-09-18T23:55:49.259Z,7.10
2023-09-18T23:58:18.005Z,9.23
